sensor_id;sensor_type;location;lat;lon;timestamp;P1;durP1;ratioP1;P2;durP2;ratioP2
48925;SDS011;39838;59.938;30.642;2024-02-28T00:01:15;23.55;;;8.10;;
48925;SDS011;39838;59.938;30.642;2024-02-28T00:03:43;19.67;;;8.05;;
48925;SDS011;39838;59.938;30.642;2024-02-28T00:06:10;23.02;;;8.43;;
48925;SDS011;39838;59.938;30.642;2024-02-28T00:08:38;32.30;;;9.15;;
48925;SDS011;39838;59.938;30.642;2024-02-28T00:11:05;22.65;;;8.75;;
48925;SDS011;39838;59.938;30.642;2024-02-28T00:13:32;34.75;;;9.65;;
48925;SDS011;39838;59.938;30.642;2024-02-28T00:15:59;58.80;;;8.80;;
48925;SDS011;39838;59.938;30.642;2024-02-28T00:18:28;55.30;;;9.20;;
48925;SDS011;39838;59.938;30.642;2024-02-28T00:20:55;89.38;;;9.57;;
48925;SDS011;39838;59.938;30.642;2024-02-28T00:23:22;30.70;;;8.98;;
48925;SDS011;39838;59.938;30.642;2024-02-28T00:25:50;19.52;;;8.20;;
48925;SDS011;39838;59.938;30.642;2024-02-28T00:28:17;23.35;;;8.68;;
48925;SDS011;39838;59.938;30.642;2024-02-28T00:30:44;23.58;;;8.40;;
48925;SDS011;39838;59.938;30.642;2024-02-28T00:33:12;23.45;;;8.50;;
48925;SDS011;39838;59.938;30.642;2024-02-28T00:35:40;20.00;;;8.48;;
48925;SDS011;39838;59.938;30.642;2024-02-28T00:38:08;32.17;;;7.95;;
48925;SDS011;39838;59.938;30.642;2024-02-28T00:40:35;25.25;;;8.80;;
48925;SDS011;39838;59.938;30.642;2024-02-28T00:43:02;21.95;;;8.30;;
48925;SDS011;39838;59.938;30.642;2024-02-28T00:45:29;24.10;;;9.55;;
48925;SDS011;39838;59.938;30.642;2024-02-28T00:47:56;19.63;;;8.20;;
48925;SDS011;39838;59.938;30.642;2024-02-28T00:50:23;20.10;;;7.53;;
48925;SDS011;39838;59.938;30.642;2024-02-28T00:52:52;20.15;;;8.73;;
48925;SDS011;39838;59.938;30.642;2024-02-28T00:55:19;23.52;;;9.18;;
48925;SDS011;39838;59.938;30.642;2024-02-28T00:57:46;50.42;;;9.25;;
48925;SDS011;39838;59.938;30.642;2024-02-28T01:00:14;25.55;;;8.02;;
48925;SDS011;39838;59.938;30.642;2024-02-28T01:02:41;24.05;;;9.10;;
48925;SDS011;39838;59.938;30.642;2024-02-28T01:05:08;19.23;;;8.05;;
48925;SDS011;39838;59.938;30.642;2024-02-28T01:07:36;18.73;;;8.23;;
48925;SDS011;39838;59.938;30.642;2024-02-28T01:10:06;18.70;;;8.07;;
48925;SDS011;39838;59.938;30.642;2024-02-28T01:12:33;27.25;;;8.50;;
48925;SDS011;39838;59.938;30.642;2024-02-28T01:15:01;17.10;;;8.20;;
48925;SDS011;39838;59.938;30.642;2024-02-28T01:17:30;19.05;;;7.82;;
48925;SDS011;39838;59.938;30.642;2024-02-28T01:19:57;19.20;;;8.05;;
48925;SDS011;39838;59.938;30.642;2024-02-28T01:22:25;17.73;;;7.93;;
48925;SDS011;39838;59.938;30.642;2024-02-28T01:24:52;18.55;;;8.23;;
48925;SDS011;39838;59.938;30.642;2024-02-28T01:27:21;20.55;;;8.20;;
48925;SDS011;39838;59.938;30.642;2024-02-28T01:29:48;14.55;;;6.63;;
48925;SDS011;39838;59.938;30.642;2024-02-28T01:32:15;8.38;;;4.78;;
48925;SDS011;39838;59.938;30.642;2024-02-28T01:34:42;9.20;;;5.07;;
48925;SDS011;39838;59.938;30.642;2024-02-28T01:37:09;14.32;;;7.13;;
48925;SDS011;39838;59.938;30.642;2024-02-28T01:39:36;15.43;;;6.97;;
48925;SDS011;39838;59.938;30.642;2024-02-28T01:42:04;18.00;;;7.45;;
48925;SDS011;39838;59.938;30.642;2024-02-28T01:44:32;17.25;;;7.25;;
48925;SDS011;39838;59.938;30.642;2024-02-28T01:47:01;23.15;;;7.43;;
48925;SDS011;39838;59.938;30.642;2024-02-28T01:49:28;15.88;;;7.60;;
48925;SDS011;39838;59.938;30.642;2024-02-28T01:51:56;11.90;;;6.30;;
48925;SDS011;39838;59.938;30.642;2024-02-28T01:54:23;13.77;;;6.55;;
48925;SDS011;39838;59.938;30.642;2024-02-28T01:56:51;9.23;;;5.40;;
48925;SDS011;39838;59.938;30.642;2024-02-28T01:59:18;14.43;;;6.32;;
48925;SDS011;39838;59.938;30.642;2024-02-28T02:01:47;13.48;;;6.20;;
48925;SDS011;39838;59.938;30.642;2024-02-28T02:04:14;15.95;;;6.68;;
48925;SDS011;39838;59.938;30.642;2024-02-28T02:06:42;15.10;;;7.43;;
48925;SDS011;39838;59.938;30.642;2024-02-28T02:09:10;20.60;;;8.43;;
48925;SDS011;39838;59.938;30.642;2024-02-28T02:11:37;14.38;;;7.15;;
48925;SDS011;39838;59.938;30.642;2024-02-28T02:14:05;9.63;;;5.57;;
48925;SDS011;39838;59.938;30.642;2024-02-28T02:16:33;13.35;;;7.03;;
48925;SDS011;39838;59.938;30.642;2024-02-28T02:19:02;9.68;;;5.60;;
48925;SDS011;39838;59.938;30.642;2024-02-28T02:21:30;11.63;;;5.82;;
48925;SDS011;39838;59.938;30.642;2024-02-28T02:24:04;10.43;;;6.90;;
48925;SDS011;39838;59.938;30.642;2024-02-28T02:26:31;9.48;;;6.20;;
48925;SDS011;39838;59.938;30.642;2024-02-28T02:28:58;6.30;;;4.10;;
48925;SDS011;39838;59.938;30.642;2024-02-28T02:31:25;6.20;;;4.10;;
48925;SDS011;39838;59.938;30.642;2024-02-28T02:33:53;7.35;;;4.75;;
48925;SDS011;39838;59.938;30.642;2024-02-28T02:36:20;8.73;;;4.43;;
48925;SDS011;39838;59.938;30.642;2024-02-28T02:38:47;8.82;;;5.30;;
48925;SDS011;39838;59.938;30.642;2024-02-28T02:41:16;9.40;;;6.03;;
48925;SDS011;39838;59.938;30.642;2024-02-28T02:43:44;10.00;;;5.63;;
48925;SDS011;39838;59.938;30.642;2024-02-28T02:46:11;9.85;;;5.93;;
48925;SDS011;39838;59.938;30.642;2024-02-28T02:48:38;10.40;;;6.45;;
48925;SDS011;39838;59.938;30.642;2024-02-28T02:51:06;9.68;;;6.05;;
48925;SDS011;39838;59.938;30.642;2024-02-28T02:53:33;10.05;;;5.82;;
48925;SDS011;39838;59.938;30.642;2024-02-28T02:56:00;10.07;;;6.40;;
48925;SDS011;39838;59.938;30.642;2024-02-28T02:58:31;10.57;;;6.30;;
48925;SDS011;39838;59.938;30.642;2024-02-28T03:00:59;8.48;;;5.60;;
48925;SDS011;39838;59.938;30.642;2024-02-28T03:03:26;9.95;;;6.28;;
48925;SDS011;39838;59.938;30.642;2024-02-28T03:05:53;10.40;;;6.30;;
48925;SDS011;39838;59.938;30.642;2024-02-28T03:08:20;9.98;;;6.18;;
48925;SDS011;39838;59.938;30.642;2024-02-28T03:10:47;8.50;;;5.90;;
48925;SDS011;39838;59.938;30.642;2024-02-28T03:13:14;8.48;;;5.45;;
48925;SDS011;39838;59.938;30.642;2024-02-28T03:15:43;7.47;;;5.00;;
48925;SDS011;39838;59.938;30.642;2024-02-28T03:18:10;7.30;;;4.63;;
48925;SDS011;39838;59.938;30.642;2024-02-28T03:20:37;10.02;;;6.22;;
48925;SDS011;39838;59.938;30.642;2024-02-28T03:23:05;8.13;;;5.53;;
48925;SDS011;39838;59.938;30.642;2024-02-28T03:25:33;8.80;;;5.90;;
48925;SDS011;39838;59.938;30.642;2024-02-28T03:28:00;9.23;;;5.68;;
48925;SDS011;39838;59.938;30.642;2024-02-28T03:30:27;8.77;;;5.75;;
48925;SDS011;39838;59.938;30.642;2024-02-28T03:32:56;9.82;;;5.90;;
48925;SDS011;39838;59.938;30.642;2024-02-28T03:35:23;8.27;;;5.25;;
48925;SDS011;39838;59.938;30.642;2024-02-28T03:37:50;8.55;;;5.20;;
48925;SDS011;39838;59.938;30.642;2024-02-28T03:40:17;8.90;;;5.75;;
48925;SDS011;39838;59.938;30.642;2024-02-28T03:42:45;6.93;;;4.90;;
48925;SDS011;39838;59.938;30.642;2024-02-28T03:45:12;7.68;;;5.15;;
48925;SDS011;39838;59.938;30.642;2024-02-28T03:47:39;9.32;;;5.65;;
48925;SDS011;39838;59.938;30.642;2024-02-28T03:50:08;7.93;;;5.65;;
48925;SDS011;39838;59.938;30.642;2024-02-28T03:52:35;8.02;;;5.25;;
48925;SDS011;39838;59.938;30.642;2024-02-28T03:55:03;7.68;;;4.95;;
48925;SDS011;39838;59.938;30.642;2024-02-28T03:57:30;7.35;;;4.68;;
48925;SDS011;39838;59.938;30.642;2024-02-28T03:59:57;7.03;;;5.03;;
48925;SDS011;39838;59.938;30.642;2024-02-28T04:02:24;9.13;;;5.90;;
48925;SDS011;39838;59.938;30.642;2024-02-28T04:04:52;8.13;;;5.20;;
48925;SDS011;39838;59.938;30.642;2024-02-28T04:07:20;10.48;;;6.25;;
48925;SDS011;39838;59.938;30.642;2024-02-28T04:09:47;10.60;;;6.68;;
48925;SDS011;39838;59.938;30.642;2024-02-28T04:12:14;10.05;;;6.80;;
48925;SDS011;39838;59.938;30.642;2024-02-28T04:14:42;8.02;;;5.55;;
48925;SDS011;39838;59.938;30.642;2024-02-28T04:17:09;9.70;;;6.13;;
48925;SDS011;39838;59.938;30.642;2024-02-28T04:19:36;10.88;;;6.63;;
48925;SDS011;39838;59.938;30.642;2024-02-28T04:22:04;10.32;;;5.90;;
48925;SDS011;39838;59.938;30.642;2024-02-28T04:24:33;10.75;;;6.72;;
48925;SDS011;39838;59.938;30.642;2024-02-28T04:27:00;8.60;;;6.32;;
48925;SDS011;39838;59.938;30.642;2024-02-28T04:29:30;11.32;;;7.28;;
48925;SDS011;39838;59.938;30.642;2024-02-28T04:31:57;12.05;;;7.53;;
48925;SDS011;39838;59.938;30.642;2024-02-28T04:34:24;13.75;;;7.35;;
48925;SDS011;39838;59.938;30.642;2024-02-28T04:36:51;12.48;;;7.05;;
48925;SDS011;39838;59.938;30.642;2024-02-28T04:39:19;12.50;;;7.43;;
48925;SDS011;39838;59.938;30.642;2024-02-28T04:41:47;13.43;;;8.50;;
48925;SDS011;39838;59.938;30.642;2024-02-28T04:44:14;12.82;;;7.20;;
48925;SDS011;39838;59.938;30.642;2024-02-28T04:46:41;11.63;;;7.18;;
48925;SDS011;39838;59.938;30.642;2024-02-28T04:49:09;12.07;;;7.45;;
48925;SDS011;39838;59.938;30.642;2024-02-28T04:51:36;12.10;;;8.05;;
48925;SDS011;39838;59.938;30.642;2024-02-28T04:54:03;14.02;;;8.98;;
48925;SDS011;39838;59.938;30.642;2024-02-28T04:56:30;14.57;;;8.60;;
48925;SDS011;39838;59.938;30.642;2024-02-28T04:58:59;14.45;;;8.88;;
48925;SDS011;39838;59.938;30.642;2024-02-28T05:01:26;13.77;;;9.30;;
48925;SDS011;39838;59.938;30.642;2024-02-28T05:03:53;16.15;;;9.75;;
48925;SDS011;39838;59.938;30.642;2024-02-28T05:06:21;16.25;;;9.93;;
48925;SDS011;39838;59.938;30.642;2024-02-28T05:08:48;14.70;;;9.07;;
48925;SDS011;39838;59.938;30.642;2024-02-28T05:11:15;14.48;;;9.20;;
48925;SDS011;39838;59.938;30.642;2024-02-28T05:13:42;15.10;;;9.52;;
48925;SDS011;39838;59.938;30.642;2024-02-28T05:16:13;15.98;;;9.73;;
48925;SDS011;39838;59.938;30.642;2024-02-28T05:18:40;17.67;;;9.88;;
48925;SDS011;39838;59.938;30.642;2024-02-28T05:21:08;16.42;;;9.90;;
48925;SDS011;39838;59.938;30.642;2024-02-28T05:23:35;16.92;;;10.00;;
48925;SDS011;39838;59.938;30.642;2024-02-28T05:26:02;16.05;;;9.30;;
48925;SDS011;39838;59.938;30.642;2024-02-28T05:28:31;16.42;;;10.30;;
48925;SDS011;39838;59.938;30.642;2024-02-28T05:30:59;17.80;;;10.57;;
48925;SDS011;39838;59.938;30.642;2024-02-28T05:33:30;16.50;;;9.82;;
48925;SDS011;39838;59.938;30.642;2024-02-28T05:35:57;18.55;;;10.30;;
48925;SDS011;39838;59.938;30.642;2024-02-28T05:38:23;16.05;;;10.27;;
48925;SDS011;39838;59.938;30.642;2024-02-28T05:40:50;15.82;;;10.05;;
48925;SDS011;39838;59.938;30.642;2024-02-28T05:43:18;18.67;;;10.77;;
48925;SDS011;39838;59.938;30.642;2024-02-28T05:45:45;16.52;;;10.50;;
48925;SDS011;39838;59.938;30.642;2024-02-28T05:48:12;16.65;;;9.70;;
48925;SDS011;39838;59.938;30.642;2024-02-28T05:50:40;16.67;;;10.40;;
48925;SDS011;39838;59.938;30.642;2024-02-28T05:53:08;20.67;;;10.25;;
48925;SDS011;39838;59.938;30.642;2024-02-28T05:55:35;18.13;;;10.55;;
48925;SDS011;39838;59.938;30.642;2024-02-28T05:58:02;16.67;;;10.23;;
48925;SDS011;39838;59.938;30.642;2024-02-28T06:00:29;17.38;;;10.50;;
48925;SDS011;39838;59.938;30.642;2024-02-28T06:02:57;17.23;;;9.85;;
48925;SDS011;39838;59.938;30.642;2024-02-28T06:05:24;17.52;;;10.85;;
48925;SDS011;39838;59.938;30.642;2024-02-28T06:07:53;16.73;;;10.43;;
48925;SDS011;39838;59.938;30.642;2024-02-28T06:10:20;17.80;;;10.88;;
48925;SDS011;39838;59.938;30.642;2024-02-28T06:12:47;17.10;;;9.82;;
48925;SDS011;39838;59.938;30.642;2024-02-28T06:15:15;17.55;;;10.07;;
48925;SDS011;39838;59.938;30.642;2024-02-28T06:17:41;14.93;;;10.15;;
48925;SDS011;39838;59.938;30.642;2024-02-28T06:20:08;16.48;;;10.48;;
48925;SDS011;39838;59.938;30.642;2024-02-28T06:22:36;16.77;;;10.68;;
48925;SDS011;39838;59.938;30.642;2024-02-28T06:25:06;17.95;;;10.52;;
48925;SDS011;39838;59.938;30.642;2024-02-28T06:27:43;16.98;;;10.07;;
48925;SDS011;39838;59.938;30.642;2024-02-28T06:30:10;15.68;;;9.30;;
48925;SDS011;39838;59.938;30.642;2024-02-28T06:32:39;13.10;;;8.93;;
48925;SDS011;39838;59.938;30.642;2024-02-28T06:35:06;14.98;;;9.75;;
48925;SDS011;39838;59.938;30.642;2024-02-28T06:37:34;16.15;;;9.55;;
48925;SDS011;39838;59.938;30.642;2024-02-28T06:40:02;14.43;;;8.98;;
48925;SDS011;39838;59.938;30.642;2024-02-28T06:42:32;14.70;;;9.48;;
48925;SDS011;39838;59.938;30.642;2024-02-28T06:45:00;15.48;;;9.77;;
48925;SDS011;39838;59.938;30.642;2024-02-28T06:47:30;14.68;;;9.50;;
48925;SDS011;39838;59.938;30.642;2024-02-28T06:49:58;16.63;;;9.60;;
48925;SDS011;39838;59.938;30.642;2024-02-28T06:52:25;15.43;;;9.40;;
48925;SDS011;39838;59.938;30.642;2024-02-28T06:54:53;15.18;;;9.70;;
48925;SDS011;39838;59.938;30.642;2024-02-28T06:57:20;19.02;;;11.00;;
48925;SDS011;39838;59.938;30.642;2024-02-28T06:59:48;19.33;;;10.55;;
48925;SDS011;39838;59.938;30.642;2024-02-28T07:02:16;14.82;;;9.65;;
48925;SDS011;39838;59.938;30.642;2024-02-28T07:04:43;16.67;;;10.05;;
48925;SDS011;39838;59.938;30.642;2024-02-28T07:07:11;17.40;;;10.30;;
48925;SDS011;39838;59.938;30.642;2024-02-28T07:09:38;18.83;;;11.30;;
48925;SDS011;39838;59.938;30.642;2024-02-28T07:12:05;18.33;;;11.05;;
48925;SDS011;39838;59.938;30.642;2024-02-28T07:14:33;18.85;;;11.40;;
48925;SDS011;39838;59.938;30.642;2024-02-28T07:17:01;19.67;;;10.85;;
48925;SDS011;39838;59.938;30.642;2024-02-28T07:19:29;18.95;;;11.25;;
48925;SDS011;39838;59.938;30.642;2024-02-28T07:21:56;19.15;;;11.77;;
48925;SDS011;39838;59.938;30.642;2024-02-28T07:24:24;17.90;;;11.02;;
48925;SDS011;39838;59.938;30.642;2024-02-28T07:26:51;18.33;;;11.25;;
48925;SDS011;39838;59.938;30.642;2024-02-28T07:29:18;18.58;;;11.10;;
48925;SDS011;39838;59.938;30.642;2024-02-28T07:31:45;20.63;;;11.43;;
48925;SDS011;39838;59.938;30.642;2024-02-28T07:34:14;18.27;;;11.60;;
48925;SDS011;39838;59.938;30.642;2024-02-28T07:36:41;21.17;;;11.90;;
48925;SDS011;39838;59.938;30.642;2024-02-28T07:39:09;19.42;;;12.05;;
48925;SDS011;39838;59.938;30.642;2024-02-28T07:41:38;24.92;;;11.88;;
48925;SDS011;39838;59.938;30.642;2024-02-28T07:44:07;20.27;;;12.25;;
48925;SDS011;39838;59.938;30.642;2024-02-28T07:46:34;23.00;;;13.27;;
48925;SDS011;39838;59.938;30.642;2024-02-28T07:49:01;20.50;;;12.27;;
48925;SDS011;39838;59.938;30.642;2024-02-28T07:51:30;21.33;;;12.70;;
48925;SDS011;39838;59.938;30.642;2024-02-28T07:53:57;22.60;;;13.30;;
48925;SDS011;39838;59.938;30.642;2024-02-28T07:56:24;23.38;;;13.10;;
48925;SDS011;39838;59.938;30.642;2024-02-28T07:58:51;22.10;;;13.10;;
48925;SDS011;39838;59.938;30.642;2024-02-28T08:01:18;22.00;;;13.55;;
48925;SDS011;39838;59.938;30.642;2024-02-28T08:03:47;23.85;;;14.02;;
48925;SDS011;39838;59.938;30.642;2024-02-28T08:06:14;24.67;;;14.07;;
48925;SDS011;39838;59.938;30.642;2024-02-28T08:08:45;22.85;;;13.88;;
48925;SDS011;39838;59.938;30.642;2024-02-28T08:11:12;22.70;;;14.05;;
48925;SDS011;39838;59.938;30.642;2024-02-28T08:13:39;23.20;;;14.02;;
48925;SDS011;39838;59.938;30.642;2024-02-28T08:16:09;23.75;;;14.55;;
48925;SDS011;39838;59.938;30.642;2024-02-28T08:18:36;26.15;;;14.95;;
48925;SDS011;39838;59.938;30.642;2024-02-28T08:21:03;25.60;;;14.80;;
48925;SDS011;39838;59.938;30.642;2024-02-28T08:23:31;25.25;;;14.95;;
48925;SDS011;39838;59.938;30.642;2024-02-28T08:26:00;28.50;;;15.75;;
48925;SDS011;39838;59.938;30.642;2024-02-28T08:28:28;26.38;;;15.70;;
48925;SDS011;39838;59.938;30.642;2024-02-28T08:30:55;27.52;;;15.30;;
48925;SDS011;39838;59.938;30.642;2024-02-28T08:33:22;29.30;;;15.80;;
48925;SDS011;39838;59.938;30.642;2024-02-28T08:35:49;25.50;;;15.10;;
48925;SDS011;39838;59.938;30.642;2024-02-28T08:38:17;26.17;;;15.30;;
48925;SDS011;39838;59.938;30.642;2024-02-28T08:40:44;28.23;;;15.32;;
48925;SDS011;39838;59.938;30.642;2024-02-28T08:43:13;25.98;;;15.82;;
48925;SDS011;39838;59.938;30.642;2024-02-28T08:45:40;31.35;;;15.80;;
48925;SDS011;39838;59.938;30.642;2024-02-28T08:48:07;28.83;;;16.27;;
48925;SDS011;39838;59.938;30.642;2024-02-28T08:50:35;33.00;;;15.82;;
48925;SDS011;39838;59.938;30.642;2024-02-28T08:53:02;26.92;;;15.52;;
48925;SDS011;39838;59.938;30.642;2024-02-28T08:55:29;29.10;;;17.38;;
48925;SDS011;39838;59.938;30.642;2024-02-28T08:57:56;30.02;;;17.35;;
48925;SDS011;39838;59.938;30.642;2024-02-28T09:00:25;34.75;;;16.27;;
48925;SDS011;39838;59.938;30.642;2024-02-28T09:02:52;29.10;;;15.35;;
48925;SDS011;39838;59.938;30.642;2024-02-28T09:05:19;28.33;;;14.82;;
48925;SDS011;39838;59.938;30.642;2024-02-28T09:07:46;29.98;;;16.17;;
48925;SDS011;39838;59.938;30.642;2024-02-28T09:10:17;26.38;;;14.85;;
48925;SDS011;39838;59.938;30.642;2024-02-28T09:12:49;26.38;;;15.15;;
48925;SDS011;39838;59.938;30.642;2024-02-28T09:15:16;29.50;;;16.45;;
48925;SDS011;39838;59.938;30.642;2024-02-28T09:17:45;28.67;;;15.05;;
48925;SDS011;39838;59.938;30.642;2024-02-28T09:20:12;27.33;;;16.10;;
48925;SDS011;39838;59.938;30.642;2024-02-28T09:22:40;28.83;;;16.05;;
48925;SDS011;39838;59.938;30.642;2024-02-28T09:25:08;28.85;;;15.07;;
48925;SDS011;39838;59.938;30.642;2024-02-28T09:27:35;32.03;;;16.55;;
48925;SDS011;39838;59.938;30.642;2024-02-28T09:30:03;30.02;;;15.60;;
48925;SDS011;39838;59.938;30.642;2024-02-28T09:32:31;26.38;;;14.73;;
48925;SDS011;39838;59.938;30.642;2024-02-28T09:35:00;26.25;;;14.63;;
48925;SDS011;39838;59.938;30.642;2024-02-28T09:37:29;28.55;;;15.52;;
48925;SDS011;39838;59.938;30.642;2024-02-28T09:39:57;25.88;;;14.40;;
48925;SDS011;39838;59.938;30.642;2024-02-28T09:42:24;25.17;;;13.80;;
48925;SDS011;39838;59.938;30.642;2024-02-28T09:44:51;26.33;;;13.88;;
48925;SDS011;39838;59.938;30.642;2024-02-28T09:47:18;26.50;;;13.25;;
48925;SDS011;39838;59.938;30.642;2024-02-28T09:49:46;22.77;;;13.25;;
48925;SDS011;39838;59.938;30.642;2024-02-28T09:52:17;23.38;;;13.13;;
48925;SDS011;39838;59.938;30.642;2024-02-28T09:54:44;26.23;;;13.48;;
48925;SDS011;39838;59.938;30.642;2024-02-28T09:57:11;21.27;;;12.13;;
48925;SDS011;39838;59.938;30.642;2024-02-28T09:59:39;20.50;;;11.93;;
48925;SDS011;39838;59.938;30.642;2024-02-28T10:02:09;20.08;;;12.25;;
48925;SDS011;39838;59.938;30.642;2024-02-28T10:04:37;21.58;;;12.18;;
48925;SDS011;39838;59.938;30.642;2024-02-28T10:07:12;18.92;;;11.20;;
48925;SDS011;39838;59.938;30.642;2024-02-28T10:09:41;20.83;;;11.82;;
48925;SDS011;39838;59.938;30.642;2024-02-28T10:12:09;22.02;;;12.05;;
48925;SDS011;39838;59.938;30.642;2024-02-28T10:14:36;19.27;;;10.77;;
48925;SDS011;39838;59.938;30.642;2024-02-28T10:17:04;20.25;;;11.10;;
48925;SDS011;39838;59.938;30.642;2024-02-28T10:19:31;18.25;;;10.40;;
48925;SDS011;39838;59.938;30.642;2024-02-28T10:21:58;17.98;;;11.00;;
48925;SDS011;39838;59.938;30.642;2024-02-28T10:24:26;18.77;;;10.77;;
48925;SDS011;39838;59.938;30.642;2024-02-28T10:26:54;20.77;;;11.98;;
48925;SDS011;39838;59.938;30.642;2024-02-28T10:29:22;19.65;;;11.25;;
48925;SDS011;39838;59.938;30.642;2024-02-28T10:31:50;19.38;;;10.95;;
48925;SDS011;39838;59.938;30.642;2024-02-28T10:34:18;20.63;;;11.30;;
48925;SDS011;39838;59.938;30.642;2024-02-28T10:36:45;17.20;;;10.73;;
48925;SDS011;39838;59.938;30.642;2024-02-28T10:39:13;19.38;;;10.25;;
48925;SDS011;39838;59.938;30.642;2024-02-28T10:41:41;19.52;;;11.00;;
48925;SDS011;39838;59.938;30.642;2024-02-28T10:44:11;18.92;;;11.40;;
48925;SDS011;39838;59.938;30.642;2024-02-28T10:46:40;18.60;;;11.07;;
48925;SDS011;39838;59.938;30.642;2024-02-28T10:49:08;16.98;;;10.48;;
48925;SDS011;39838;59.938;30.642;2024-02-28T10:51:36;19.45;;;10.52;;
48925;SDS011;39838;59.938;30.642;2024-02-28T10:54:07;18.92;;;11.15;;
48925;SDS011;39838;59.938;30.642;2024-02-28T10:56:36;18.58;;;11.23;;
48925;SDS011;39838;59.938;30.642;2024-02-28T10:59:05;17.48;;;11.05;;
48925;SDS011;39838;59.938;30.642;2024-02-28T11:01:35;19.33;;;12.13;;
48925;SDS011;39838;59.938;30.642;2024-02-28T11:04:07;19.35;;;11.55;;
48925;SDS011;39838;59.938;30.642;2024-02-28T11:06:35;20.08;;;12.38;;
48925;SDS011;39838;59.938;30.642;2024-02-28T11:09:02;21.33;;;12.43;;
48925;SDS011;39838;59.938;30.642;2024-02-28T11:11:30;19.88;;;11.25;;
48925;SDS011;39838;59.938;30.642;2024-02-28T11:13:58;19.23;;;11.50;;
48925;SDS011;39838;59.938;30.642;2024-02-28T11:16:27;20.63;;;11.20;;
48925;SDS011;39838;59.938;30.642;2024-02-28T11:18:56;20.23;;;11.15;;
48925;SDS011;39838;59.938;30.642;2024-02-28T11:21:25;18.77;;;11.23;;
48925;SDS011;39838;59.938;30.642;2024-02-28T11:23:56;17.27;;;11.23;;
48925;SDS011;39838;59.938;30.642;2024-02-28T11:26:24;18.60;;;10.45;;
48925;SDS011;39838;59.938;30.642;2024-02-28T11:28:53;17.27;;;10.27;;
48925;SDS011;39838;59.938;30.642;2024-02-28T11:31:20;18.00;;;9.82;;
48925;SDS011;39838;59.938;30.642;2024-02-28T11:33:48;16.73;;;10.93;;
48925;SDS011;39838;59.938;30.642;2024-02-28T11:36:16;19.33;;;11.50;;
48925;SDS011;39838;59.938;30.642;2024-02-28T11:38:44;17.40;;;10.52;;
48925;SDS011;39838;59.938;30.642;2024-02-28T11:41:11;24.23;;;12.15;;
48925;SDS011;39838;59.938;30.642;2024-02-28T11:43:39;17.58;;;11.35;;
48925;SDS011;39838;59.938;30.642;2024-02-28T11:46:07;18.88;;;12.00;;
48925;SDS011;39838;59.938;30.642;2024-02-28T11:48:36;20.63;;;12.40;;
48925;SDS011;39838;59.938;30.642;2024-02-28T11:51:03;15.60;;;10.93;;
48925;SDS011;39838;59.938;30.642;2024-02-28T11:53:32;17.33;;;11.32;;
48925;SDS011;39838;59.938;30.642;2024-02-28T11:55:59;19.23;;;11.95;;
48925;SDS011;39838;59.938;30.642;2024-02-28T11:58:26;18.92;;;11.43;;
48925;SDS011;39838;59.938;30.642;2024-02-28T12:00:54;16.70;;;10.77;;
48925;SDS011;39838;59.938;30.642;2024-02-28T12:03:21;19.02;;;10.23;;
48925;SDS011;39838;59.938;30.642;2024-02-28T12:05:48;15.70;;;11.10;;
48925;SDS011;39838;59.938;30.642;2024-02-28T12:08:16;17.80;;;10.57;;
48925;SDS011;39838;59.938;30.642;2024-02-28T12:10:47;16.48;;;10.90;;
48925;SDS011;39838;59.938;30.642;2024-02-28T12:13:17;16.90;;;11.25;;
48925;SDS011;39838;59.938;30.642;2024-02-28T12:15:45;21.23;;;12.35;;
48925;SDS011;39838;59.938;30.642;2024-02-28T12:18:14;17.88;;;11.30;;
48925;SDS011;39838;59.938;30.642;2024-02-28T12:20:43;18.75;;;11.98;;
48925;SDS011;39838;59.938;30.642;2024-02-28T12:23:10;20.40;;;12.35;;
48925;SDS011;39838;59.938;30.642;2024-02-28T12:25:38;20.02;;;11.98;;
48925;SDS011;39838;59.938;30.642;2024-02-28T12:28:06;18.20;;;11.98;;
48925;SDS011;39838;59.938;30.642;2024-02-28T12:30:39;20.92;;;13.02;;
48925;SDS011;39838;59.938;30.642;2024-02-28T12:33:07;21.05;;;11.80;;
48925;SDS011;39838;59.938;30.642;2024-02-28T12:35:35;19.35;;;12.02;;
48925;SDS011;39838;59.938;30.642;2024-02-28T12:38:02;22.05;;;12.80;;
48925;SDS011;39838;59.938;30.642;2024-02-28T12:40:29;20.90;;;12.82;;
48925;SDS011;39838;59.938;30.642;2024-02-28T12:42:56;23.63;;;13.60;;
48925;SDS011;39838;59.938;30.642;2024-02-28T12:45:25;19.65;;;12.45;;
48925;SDS011;39838;59.938;30.642;2024-02-28T12:47:52;20.58;;;12.35;;
48925;SDS011;39838;59.938;30.642;2024-02-28T12:50:22;20.42;;;11.30;;
48925;SDS011;39838;59.938;30.642;2024-02-28T12:52:50;17.85;;;11.10;;
48925;SDS011;39838;59.938;30.642;2024-02-28T12:55:19;17.55;;;10.70;;
48925;SDS011;39838;59.938;30.642;2024-02-28T12:57:47;20.08;;;11.40;;
48925;SDS011;39838;59.938;30.642;2024-02-28T13:00:14;19.48;;;11.02;;
48925;SDS011;39838;59.938;30.642;2024-02-28T13:02:43;20.13;;;11.25;;
48925;SDS011;39838;59.938;30.642;2024-02-28T13:05:11;18.23;;;11.32;;
48925;SDS011;39838;59.938;30.642;2024-02-28T13:07:38;17.55;;;10.50;;
48925;SDS011;39838;59.938;30.642;2024-02-28T13:10:06;21.70;;;11.65;;
48925;SDS011;39838;59.938;30.642;2024-02-28T13:12:34;14.98;;;9.85;;
48925;SDS011;39838;59.938;30.642;2024-02-28T13:15:01;18.02;;;9.35;;
48925;SDS011;39838;59.938;30.642;2024-02-28T13:17:30;12.38;;;7.53;;
48925;SDS011;39838;59.938;30.642;2024-02-28T13:19:59;13.40;;;7.95;;
48925;SDS011;39838;59.938;30.642;2024-02-28T13:22:30;12.88;;;7.85;;
48925;SDS011;39838;59.938;30.642;2024-02-28T13:24:59;12.35;;;7.72;;
48925;SDS011;39838;59.938;30.642;2024-02-28T13:27:26;13.23;;;8.23;;
48925;SDS011;39838;59.938;30.642;2024-02-28T13:29:54;15.30;;;9.13;;
48925;SDS011;39838;59.938;30.642;2024-02-28T13:32:21;14.98;;;8.73;;
48925;SDS011;39838;59.938;30.642;2024-02-28T13:34:48;13.75;;;9.02;;
48925;SDS011;39838;59.938;30.642;2024-02-28T13:37:16;18.38;;;9.52;;
48925;SDS011;39838;59.938;30.642;2024-02-28T13:39:44;13.77;;;8.75;;
48925;SDS011;39838;59.938;30.642;2024-02-28T13:42:12;14.40;;;9.13;;
48925;SDS011;39838;59.938;30.642;2024-02-28T13:44:39;18.95;;;9.82;;
48925;SDS011;39838;59.938;30.642;2024-02-28T13:47:08;15.95;;;10.73;;
48925;SDS011;39838;59.938;30.642;2024-02-28T13:49:35;17.13;;;10.25;;
48925;SDS011;39838;59.938;30.642;2024-02-28T13:52:02;17.58;;;9.63;;
48925;SDS011;39838;59.938;30.642;2024-02-28T13:54:31;18.20;;;9.48;;
48925;SDS011;39838;59.938;30.642;2024-02-28T13:56:58;15.80;;;9.82;;
48925;SDS011;39838;59.938;30.642;2024-02-28T13:59:26;15.68;;;9.88;;
48925;SDS011;39838;59.938;30.642;2024-02-28T14:01:54;15.90;;;9.52;;
48925;SDS011;39838;59.938;30.642;2024-02-28T14:04:21;16.25;;;8.90;;
48925;SDS011;39838;59.938;30.642;2024-02-28T14:06:48;15.40;;;9.82;;
48925;SDS011;39838;59.938;30.642;2024-02-28T14:09:15;14.60;;;9.50;;
48925;SDS011;39838;59.938;30.642;2024-02-28T14:11:44;15.63;;;9.68;;
48925;SDS011;39838;59.938;30.642;2024-02-28T14:14:11;16.65;;;9.48;;
48925;SDS011;39838;59.938;30.642;2024-02-28T14:16:39;16.35;;;9.55;;
48925;SDS011;39838;59.938;30.642;2024-02-28T14:19:06;15.52;;;9.30;;